Pagrindinis puslapis
METAR-TAF:

METAR-TAF

Oro uostai :

Ulan Batoras, Mongolija

platuma: 47-55N, ilguma: 106-52E, Aukštis: 1306 m

Dabartinis oras

Ataskaita buvo paskelbta 28 minutes, ne 03:30 UTC
Ramus vėjas
Temperatūra -16°C
Drėgmė 78%
Slėgis 1014 hPa
Matomumas: 8000 m
Su prošvaistėmis ne aukštis 10000 ft

METAR: ZMUB 240330Z 00000MPS 8000NW BKN100 M16/M19 Q1014 NOSIG RMK QFE653.4 75 NW MO

Laikas: 11:58 (03:58 UTC)

Prognozė

Ataskaita buvo paskelbta 5 valandos ir 12 minutes, ne 22:46 UTC
Prognozė galioja nuo 24 metu 00 UTC su 25 metu 06 UTC
Vėjas 4 kt nuo kintamojo kryptimis
Matomumas 10 km arba daugiau
Išsisklaidę debesys ne aukštis 3300 ft
Su prošvaistėmis ne aukštis 10000 ft
Tapsmas
nuo 24 metu 10 UTC su 24 metu 12 UTC
Matomumas: 6000 m
Išsisklaidę debesys ne aukštis 3000 ft
Su prošvaistėmis ne aukštis 8000 ft
sniegas
Laikinai
nuo 24 metu 12 UTC su 24 metu 24 UTC
Matomumas: 3000 m

TAF: ZMUB 232246Z 2400/2506 VRB02MPS 9999 SCT033 BKN100 TXM11/2406Z TNM21/2424Z BECMG 2410/2412 6000 SN SCT030 BKN080 TEMPO 2412/2424 3000

Orai ataskaitas ir orų prognozės (METAR, TAF).

turimą stotys yra geltonos ir raudonos taškus žemėlapyje.

Perkelti pele per norėdami pamatyti stoties vardą.

Tada spustelėkite, norėdami matyti oro stebėjimo ir prognozės.

Norėdami pakeisti žemėlapį: spustelėkite ant žalios mygtukų su juodo kryžiaus žemyn,; žalią mygtuką su brūkšneliu, jei norite nutolinti; arba žalių rodyklių gretimoms žemėlapius.


METAR-TAF: